Time;durP1;ratioP1;P1;durP2;ratioP2;P2;SDS_P1;SDS_P2;PMS_P1;PMS_P2;Temp;Humidity;BMP_temperature;BMP_pressure;BME280_temperature;BME280_humidity;BME280_pressure;Samples;Min_cycle;Max_cycle;Signal;HPM_P1;HPM_P2
2022/08/08 00:01:52;;;;;;;;;;;;;;;21.56;76.99;100899.10;1749982;81;20176;-78
2022/08/08 00:04:24;;;;;;;;;;;;;;;21.54;77.04;100900.20;1758532;81;20154;-75
2022/08/08 00:07:14;;;;;;;;;;;;;;;21.51;76.97;100900.84;1758736;81;21165;-75
2022/08/08 00:10:02;;;;;;;;;;;;;;;21.46;76.98;100904.31;1741922;81;20200;-76
2022/08/08 00:12:31;;;;;;;;;;;;;;;21.42;77.05;100903.33;1739318;81;20945;-76
2022/08/08 00:15:05;;;;;;;;;;;;;;;21.40;77.18;100911.02;1747926;81;20222;-76
2022/08/08 00:17:51;;;;;;;;;;;;;;;21.41;77.24;100909.89;1740214;81;20174;-76
2022/08/08 00:20:37;;;;;;;;;;;;;;;21.40;77.29;100906.95;1758739;81;21234;-76
2022/08/08 00:23:06;;;;;;;;;;;;;;;21.40;77.26;100906.38;1756142;81;20129;-76
2022/08/08 00:25:48;;;;;;;;;;;;;;;21.40;77.26;100908.30;1759738;81;20193;-76
2022/08/08 00:28:26;;;;;;;;;;;;;;;21.41;77.31;100907.17;1760779;81;20138;-75
2022/08/08 00:31:00;;;;;;;;;;;;;;;21.43;77.32;100903.02;1759101;80;20474;-74
2022/08/08 00:33:35;;;;;;;;;;;;;;;21.42;77.22;100898.72;1740975;81;21567;-75
2022/08/08 00:36:10;;;;;;;;;;;;;;;21.40;77.18;100902.30;1759727;81;20624;-77
2022/08/08 00:39:00;;;;;;;;;;;;;;;21.38;77.15;100903.17;1758444;81;20146;-76
2022/08/08 00:41:52;;;;;;;;;;;;;;;21.39;77.17;100905.33;1726327;81;20177;-75
2022/08/08 00:44:40;;;;;;;;;;;;;;;21.39;77.14;100901.25;1755904;81;20211;-78
2022/08/08 00:47:28;;;;;;;;;;;;;;;21.39;77.13;100898.00;1751185;80;21164;-75
2022/08/08 00:50:04;;;;;;;;;;;;;;;21.41;77.20;100899.02;1739132;81;20143;-76
2022/08/08 00:52:52;;;;;;;;;;;;;;;21.42;77.16;100898.72;1755729;81;20146;-76
2022/08/08 00:55:44;;;;;;;;;;;;;;;21.42;77.10;100890.56;1756505;81;20408;-75
2022/08/08 00:58:26;;;;;;;;;;;;;;;21.43;77.10;100892.72;1758945;81;20437;-76
2022/08/08 01:01:09;;;;;;;;;;;;;;;21.41;77.05;100885.44;1757825;81;21144;-76
2022/08/08 01:03:39;;;;;;;;;;;;;;;21.38;77.04;100882.00;1757530;81;20134;-76
2022/08/08 01:06:18;;;;;;;;;;;;;;;21.38;77.12;100886.88;1761027;81;20173;-76
2022/08/08 01:09:14;;;;;;;;;;;;;;;21.39;77.08;100887.67;1759312;81;20823;-77
2022/08/08 01:12:11;;;;;;;;;;;;;;;21.38;77.07;100886.08;1755287;81;20186;-75
2022/08/08 01:15:04;;;;;;;;;;;;;;;21.35;76.99;100892.95;1709909;81;21613;-76
2022/08/08 01:17:55;;;;;;;;;;;;;;;21.29;76.97;100900.45;1753228;81;20138;-77
2022/08/08 01:20:25;;;;;;;;;;;;;;;21.26;76.98;100897.59;1726498;81;20213;-74
2022/08/08 01:23:28;;;;;;;;;;;;;;;21.25;77.12;100895.40;1756382;81;20858;-77
2022/08/08 01:26:11;;;;;;;;;;;;;;;21.26;77.22;100893.51;1732523;81;20199;-75
2022/08/08 01:28:47;;;;;;;;;;;;;;;21.22;77.28;100895.25;1756909;81;21932;-76
2022/08/08 01:31:53;;;;;;;;;;;;;;;21.18;77.30;100897.80;1757800;81;20173;-75
2022/08/08 01:34:45;;;;;;;;;;;;;;;21.17;77.37;100888.06;1758289;81;20219;-76
2022/08/08 01:37:48;;;;;;;;;;;;;;;21.18;77.39;100888.86;1755705;81;20213;-74
2022/08/08 01:40:20;;;;;;;;;;;;;;;21.19;77.36;100891.81;1760651;81;20178;-75
2022/08/08 01:42:52;;;;;;;;;;;;;;;21.16;77.27;100899.23;1760885;81;21764;-76
2022/08/08 01:45:39;;;;;;;;;;;;;;;21.16;77.32;100895.98;1757764;81;20417;-75
2022/08/08 01:48:12;;;;;;;;;;;;;;;21.18;77.33;100891.02;1754979;81;20186;-75
2022/08/08 01:51:02;;;;;;;;;;;;;;;21.21;77.34;100895.81;1756110;81;20258;-75
2022/08/08 01:53:53;;;;;;;;;;;;;;;21.23;77.22;100894.94;1755126;81;20159;-75
2022/08/08 01:56:43;;;;;;;;;;;;;;;21.23;77.15;100892.22;1733028;81;21252;-76
2022/08/08 01:59:36;;;;;;;;;;;;;;;21.24;77.08;100893.81;1760879;81;20185;-76
2022/08/08 02:02:35;;;;;;;;;;;;;;;21.23;76.97;100900.38;1758323;81;20161;-76
2022/08/08 02:05:33;;;;;;;;;;;;;;;21.20;76.89;100898.30;1757215;81;20142;-76
2022/08/08 02:08:20;;;;;;;;;;;;;;;21.17;76.89;100907.08;1757781;81;20437;-76
2022/08/08 02:10:53;;;;;;;;;;;;;;;;;;1759055;81;21767;-78
2022/08/08 02:13:25;;;;;;;;;;;;;;;21.11;76.81;100903.48;1757390;81;20460;-77
2022/08/08 02:15:54;;;;;;;;;;;;;;;21.06;76.79;100902.53;1757528;81;20544;-75
2022/08/08 02:18:25;;;;;;;;;;;;;;;21.03;76.81;100903.73;1758075;81;20143;-77
2022/08/08 02:23:50;;;;;;;;;;;;;;;20.99;76.88;100903.58;1760423;81;21804;-78
2022/08/08 02:26:31;;;;;;;;;;;;;;;20.98;76.96;100907.39;1760474;81;20203;-78
2022/08/08 02:29:16;;;;;;;;;;;;;;;21.00;77.01;100906.52;1758020;81;20142;-76
2022/08/08 02:31:55;;;;;;;;;;;;;;;20.99;76.92;100907.65;1757610;81;20173;-77
2022/08/08 02:34:29;;;;;;;;;;;;;;;20.99;76.89;100905.47;1738482;81;20268;-76
2022/08/08 02:37:14;;;;;;;;;;;;;;;20.98;76.77;100910.10;1757486;81;21755;-77
2022/08/08 02:40:13;;;;;;;;;;;;;;;21.01;76.80;100912.75;1757932;81;20166;-76
2022/08/08 02:43:03;;;;;;;;;;;;;;;21.00;76.80;100909.23;1757828;81;20530;-77
2022/08/08 02:45:50;;;;;;;;;;;;;;;21.00;76.79;100915.23;1757729;81;20229;-77
2022/08/08 02:48:35;;;;;;;;;;;;;;;20.98;76.72;100906.03;1758152;81;20138;-77
2022/08/08 02:51:27;;;;;;;;;;;;;;;20.98;76.74;100915.53;1758224;81;21142;-77
2022/08/08 02:54:14;;;;;;;;;;;;;;;21.00;76.70;100917.38;1758462;81;20135;-76
2022/08/08 02:56:53;;;;;;;;;;;;;;;21.03;76.65;100920.03;1755250;81;20221;-74
2022/08/08 02:59:56;;;;;;;;;;;;;;;21.04;76.54;100920.26;1757249;81;20169;-77
2022/08/08 03:02:39;;;;;;;;;;;;;;;21.04;76.46;100928.41;1757978;81;20205;-77
2022/08/08 03:05:17;;;;;;;;;;;;;;;21.03;76.36;100926.81;1757639;81;21148;-77
2022/08/08 03:08:03;;;;;;;;;;;;;;;21.02;76.22;100927.35;1750218;81;20146;-76
2022/08/08 03:11:08;;;;;;;;;;;;;;;21.03;76.17;100928.97;1711134;81;20148;-75
2022/08/08 03:13:46;;;;;;;;;;;;;;;21.03;75.96;100929.53;1760797;81;20118;-78
2022/08/08 03:16:34;;;;;;;;;;;;;;;21.02;75.80;100930.06;1760309;81;20155;-78
2022/08/08 03:19:22;;;;;;;;;;;;;;;21.00;75.81;100929.60;1758536;81;21247;-78
2022/08/08 03:21:48;;;;;;;;;;;;;;;21.03;75.92;100934.97;1754743;81;20134;-77
2022/08/08 03:24:18;;;;;;;;;;;;;;;21.06;75.84;100935.69;1759202;81;20159;-76
2022/08/08 03:26:54;;;;;;;;;;;;;;;21.05;75.64;100934.86;1758822;81;20167;-76
2022/08/08 03:29:25;;;;;;;;;;;;;;;21.03;75.55;100932.25;1756112;81;20428;-76
2022/08/08 03:34:38;;;;;;;;;;;;;;;21.02;75.64;100942.85;1759553;81;20336;-86
2022/08/08 03:37:04;;;;;;;;;;;;;;;21.02;75.63;100942.85;1758096;81;20214;-88
2022/08/08 03:39:31;;;;;;;;;;;;;;;21.02;75.62;100937.42;1756875;81;20151;-87
2022/08/08 03:41:57;;;;;;;;;;;;;;;21.01;75.59;100943.98;1758804;81;20181;-82
2022/08/08 03:44:31;;;;;;;;;;;;;;;21.01;75.63;100943.41;1734915;81;21172;-86
2022/08/08 03:46:59;;;;;;;;;;;;;;;21.03;75.63;100947.98;1758753;81;20134;-86
2022/08/08 03:49:28;;;;;;;;;;;;;;;21.03;75.57;100945.27;1735503;81;20232;-81
2022/08/08 03:51:55;;;;;;;;;;;;;;;20.98;75.62;100946.77;1759265;81;20218;-84
2022/08/08 03:54:24;;;;;;;;;;;;;;;20.94;75.78;100951.23;1759029;81;20146;-80
2022/08/08 03:56:50;;;;;;;;;;;;;;;20.94;75.82;100948.52;1758911;81;21840;-86
2022/08/08 03:59:17;;;;;;;;;;;;;;;20.93;75.83;100952.36;1759056;81;20162;-87
2022/08/08 04:01:44;;;;;;;;;;;;;;;20.93;75.85;100951.01;1761636;81;20572;-82
2022/08/08 04:04:10;;;;;;;;;;;;;;;20.93;75.89;100951.56;1760881;81;20249;-89
2022/08/08 04:06:45;;;;;;;;;;;;;;;20.98;75.84;100955.47;1760712;81;20188;-89
2022/08/08 04:09:11;;;;;;;;;;;;;;;20.98;75.78;100955.47;1754366;81;21584;-88
2022/08/08 04:11:41;;;;;;;;;;;;;;;21.03;75.86;100955.34;1734193;81;20146;-83
2022/08/08 04:14:09;;;;;;;;;;;;;;;21.08;75.80;100961.95;1758526;81;20575;-88
2022/08/08 04:16:37;;;;;;;;;;;;;;;21.13;75.61;100964.53;1758593;81;20188;-89
2022/08/08 04:19:03;;;;;;;;;;;;;;;21.19;75.60;100965.98;1758863;81;20186;-86
2022/08/08 04:21:30;;;;;;;;;;;;;;;21.24;75.37;100969.88;1758957;81;21188;-88
2022/08/08 04:23:58;;;;;;;;;;;;;;;21.26;75.16;100962.22;1758707;81;20194;-85
2022/08/08 04:26:25;;;;;;;;;;;;;;;21.29;74.97;100962.15;1756518;81;20161;-87
2022/08/08 04:28:52;;;;;;;;;;;;;;;21.30;74.80;100966.45;1733088;80;20178;-83
2022/08/08 04:31:19;;;;;;;;;;;;;;;21.34;74.69;100966.05;1760168;81;20456;-84
2022/08/08 04:33:45;;;;;;;;;;;;;;;21.38;74.42;100963.52;1760183;81;21173;-82
2022/08/08 04:36:12;;;;;;;;;;;;;;;21.44;74.44;100962.25;1759577;81;20142;-86
2022/08/08 04:38:38;;;;;;;;;;;;;;;21.50;74.09;100960.97;1761026;81;20170;-88
2022/08/08 04:41:05;;;;;;;;;;;;;;;21.54;73.98;100963.28;1743671;81;20139;-87
2022/08/08 04:43:32;;;;;;;;;;;;;;;21.65;74.03;100962.37;1759230;81;20362;-88
2022/08/08 04:45:59;;;;;;;;;;;;;;;21.76;73.97;100963.09;1730239;81;21069;-85
2022/08/08 04:48:25;;;;;;;;;;;;;;;21.83;73.16;100970.77;1758914;81;20146;-86
2022/08/08 04:50:51;;;;;;;;;;;;;;;21.87;72.98;100970.91;1760770;81;20158;-87
2022/08/08 04:53:19;;;;;;;;;;;;;;;21.89;72.87;100968.69;1761049;81;20163;-87
2022/08/08 04:55:46;;;;;;;;;;;;;;;21.92;72.50;100974.84;1760165;81;20138;-87
2022/08/08 04:58:13;;;;;;;;;;;;;;;21.92;72.45;100973.48;1758272;81;21105;-89
2022/08/08 05:00:40;;;;;;;;;;;;;;;21.91;72.13;100969.14;1756883;81;20507;-92
2022/08/08 05:03:07;;;;;;;;;;;;;;;21.88;72.01;100972.50;1757496;81;20142;-88
2022/08/08 05:05:34;;;;;;;;;;;;;;;21.84;71.67;100971.56;1755947;81;20145;-87
2022/08/08 05:08:02;;;;;;;;;;;;;;;21.87;71.87;100977.15;1759057;81;20142;-87
2022/08/08 05:10:29;;;;;;;;;;;;;;;21.91;71.69;100965.86;1733378;81;21145;-84
2022/08/08 05:12:56;;;;;;;;;;;;;;;21.95;71.50;100969.55;1758355;80;20207;-82
2022/08/08 05:15:23;;;;;;;;;;;;;;;21.96;71.32;100969.78;1759994;81;20252;-88
2022/08/08 05:17:49;;;;;;;;;;;;;;;22.00;71.09;100972.08;1751983;81;20524;-86
2022/08/08 05:20:16;;;;;;;;;;;;;;;22.02;70.96;100971.77;1754006;81;21106;-85
2022/08/08 05:22:42;;;;;;;;;;;;;;;22.02;70.96;100978.57;1757170;81;21184;-86
2022/08/08 05:25:09;;;;;;;;;;;;;;;22.04;70.98;100982.31;1755277;81;20181;-77
2022/08/08 05:27:36;;;;;;;;;;;;;;;22.01;70.86;100977.78;1757590;81;20190;-78
2022/08/08 05:30:03;;;;;;;;;;;;;;;22.04;70.79;100987.19;1757806;81;20184;-81
2022/08/08 05:32:38;;;;;;;;;;;;;;;22.09;70.78;100987.03;1756247;81;20182;-80
2022/08/08 05:35:06;;;;;;;;;;;;;;;22.08;70.68;100978.64;1732897;81;21134;-80
2022/08/08 05:37:38;;;;;;;;;;;;;;;22.13;70.49;100985.81;1759452;81;20228;-79
2022/08/08 05:40:05;;;;;;;;;;;;;;;22.14;70.40;100987.41;1756912;80;20146;-80
2022/08/08 05:42:42;;;;;;;;;;;;;;;22.18;70.29;100990.56;1759489;81;20213;-77
2022/08/08 05:45:11;;;;;;;;;;;;;;;22.20;70.18;100995.66;1755848;81;20647;-77
2022/08/08 05:47:39;;;;;;;;;;;;;;;22.25;70.18;100996.86;1758342;81;21136;-80
2022/08/08 05:50:07;;;;;;;;;;;;;;;22.27;69.84;100997.89;1758975;81;20195;-78
2022/08/08 05:52:34;;;;;;;;;;;;;;;22.28;69.78;100999.47;1758122;81;20178;-78
2022/08/08 05:55:08;;;;;;;;;;;;;;;22.28;69.66;100991.31;1758548;81;20149;-82
2022/08/08 05:57:35;;;;;;;;;;;;;;;22.32;69.70;100999.08;1757927;81;20142;-79
2022/08/08 06:00:06;;;;;;;;;;;;;;;22.37;69.66;100994.80;1759990;81;21142;-80
2022/08/08 06:05:33;;;;;;;;;;;;;;;22.49;69.39;100992.20;1759118;81;20202;-80
2022/08/08 06:08:00;;;;;;;;;;;;;;;22.62;69.28;100994.47;1736132;81;20142;-78
2022/08/08 06:10:31;;;;;;;;;;;;;;;22.68;68.77;100995.32;1759269;81;20534;-80
2022/08/08 06:12:59;;;;;;;;;;;;;;;22.76;68.56;101001.05;1759480;81;21215;-79
2022/08/08 06:15:26;;;;;;;;;;;;;;;22.82;68.46;100997.02;1760865;81;20171;-80
2022/08/08 06:17:53;;;;;;;;;;;;;;;22.86;68.00;101002.03;1761034;81;20213;-79
2022/08/08 06:20:19;;;;;;;;;;;;;;;22.83;67.62;101004.84;1761283;80;20178;-79
2022/08/08 06:22:46;;;;;;;;;;;;;;;22.86;67.81;101008.84;1759558;81;20139;-80
2022/08/08 06:25:14;;;;;;;;;;;;;;;22.84;67.58;101010.55;1759161;81;21143;-80
2022/08/08 06:27:46;;;;;;;;;;;;;;;22.85;67.60;101005.33;1760699;81;20189;-80
2022/08/08 06:30:13;;;;;;;;;;;;;;;22.91;67.71;101012.75;1736206;81;20496;-79
2022/08/08 06:32:50;;;;;;;;;;;;;;;23.00;67.74;101016.27;1758838;81;20497;-78
2022/08/08 06:35:18;;;;;;;;;;;;;;;23.10;67.62;101013.15;1759397;81;20166;-79
2022/08/08 06:37:52;;;;;;;;;;;;;;;23.24;67.34;101017.55;1755573;81;21154;-80
2022/08/08 06:40:20;;;;;;;;;;;;;;;23.32;66.86;101017.47;1758234;81;20565;-79
2022/08/08 06:42:53;;;;;;;;;;;;;;;23.35;66.38;101016.81;1780616;80;20172;-78
2022/08/08 06:45:23;;;;;;;;;;;;;;;23.34;66.18;101013.86;1773404;80;20446;-79
2022/08/08 06:47:50;;;;;;;;;;;;;;;23.39;66.33;101022.39;1776841;80;20257;-79
2022/08/08 06:50:17;;;;;;;;;;;;;;;23.47;66.12;101016.09;1754400;81;21104;-79
2022/08/08 06:52:44;;;;;;;;;;;;;;;23.54;65.78;101016.34;1760166;81;20487;-79
2022/08/08 06:55:11;;;;;;;;;;;;;;;23.66;65.33;101015.63;1758640;81;20201;-80
2022/08/08 06:57:38;;;;;;;;;;;;;;;23.74;64.74;101020.79;1730866;83;20126;-80
2022/08/08 07:00:06;;;;;;;;;;;;;;;23.83;64.64;101025.60;1730708;83;20147;-82
2022/08/08 07:02:34;;;;;;;;;;;;;;;24.00;64.43;101025.43;1729427;83;21193;-80
2022/08/08 07:05:08;;;;;;;;;;;;;;;24.16;63.95;101032.98;1729990;83;20148;-80
2022/08/08 07:08:01;;;;;;;;;;;;;;;24.30;63.37;101034.26;1730448;81;20435;-79
2022/08/08 07:10:32;;;;;;;;;;;;;;;24.35;62.33;101033.27;1754038;82;20147;-81
2022/08/08 07:13:08;;;;;;;;;;;;;;;24.26;61.89;101035.28;1730466;83;20156;-78
2022/08/08 07:15:46;;;;;;;;;;;;;;;24.19;61.87;101037.77;1754020;81;21102;-80
2022/08/08 07:18:16;;;;;;;;;;;;;;;24.09;62.08;101041.72;1750961;80;20163;-82
2022/08/08 07:20:43;;;;;;;;;;;;;;;24.08;62.47;101031.92;1756291;81;20194;-80
2022/08/08 07:23:23;;;;;;;;;;;;;;;24.10;62.15;101039.22;1758038;81;20489;-80
2022/08/08 07:25:51;;;;;;;;;;;;;;;24.01;62.14;101039.30;1758079;81;20217;-81
2022/08/08 07:28:24;;;;;;;;;;;;;;;23.96;62.43;101038.73;1758759;81;22016;-81
2022/08/08 07:30:51;;;;;;;;;;;;;;;23.97;62.20;101039.74;1757935;81;20142;-81
2022/08/08 07:33:21;;;;;;;;;;;;;;;24.00;62.46;101038.28;1757785;81;20461;-79
2022/08/08 07:35:48;;;;;;;;;;;;;;;24.09;62.48;101035.70;1758318;81;20528;-80
2022/08/08 07:38:17;;;;;;;;;;;;;;;24.15;62.34;101035.47;1755264;81;20215;-80
2022/08/08 07:40:45;;;;;;;;;;;;;;;24.16;62.16;101035.72;1779723;80;21195;-81
2022/08/08 07:43:12;;;;;;;;;;;;;;;24.18;62.08;101044.34;1758564;81;20457;-81
2022/08/08 07:45:42;;;;;;;;;;;;;;;24.24;61.94;101043.00;1756389;81;20156;-80
2022/08/08 07:48:09;;;;;;;;;;;;;;;24.25;61.86;101044.59;1758462;81;20118;-74
2022/08/08 07:50:36;;;;;;;;;;;;;;;24.37;61.69;101043.83;1759474;81;20130;-75
2022/08/08 07:53:21;;;;;;;;;;;;;;;24.52;61.48;101044.00;1735234;81;22187;-75
2022/08/08 07:55:50;;;;;;;;;;;;;;;24.63;60.71;101038.89;1760112;81;20210;-78
2022/08/08 07:58:31;;;;;;;;;;;;;;;24.72;60.74;101037.42;1758996;81;20127;-77
2022/08/08 08:01:04;;;;;;;;;;;;;;;24.85;60.42;101029.45;1758252;81;20215;-76
2022/08/08 08:03:55;;;;;;;;;;;;;;;24.97;59.82;101040.35;1757862;81;20126;-79
2022/08/08 08:06:23;;;;;;;;;;;;;;;25.09;59.64;101040.14;1759469;81;22222;-77
2022/08/08 08:09:06;;;;;;;;;;;;;;;25.25;59.34;101041.84;1760807;81;20160;-79
2022/08/08 08:11:34;;;;;;;;;;;;;;;25.39;59.11;101040.09;1759820;81;20145;-79
2022/08/08 08:14:07;;;;;;;;;;;;;;;25.47;58.52;101047.39;1761201;81;20122;-82
2022/08/08 08:16:38;;;;;;;;;;;;;;;25.51;58.30;101050.23;1760117;81;20522;-81
2022/08/08 08:19:08;;;;;;;;;;;;;;;25.57;57.94;101052.95;1761252;81;21112;-79
2022/08/08 08:21:43;;;;;;;;;;;;;;;25.63;57.66;101053.48;1760317;81;20436;-79
2022/08/08 08:24:12;;;;;;;;;;;;;;;25.57;56.96;101054.86;1759479;81;20256;-81
2022/08/08 08:26:39;;;;;;;;;;;;;;;25.46;57.21;101052.61;1758813;81;20166;-79
2022/08/08 08:29:07;;;;;;;;;;;;;;;25.48;57.54;101053.65;1758213;81;20170;-79
2022/08/08 08:31:34;;;;;;;;;;;;;;;25.52;57.43;101053.75;1757869;81;21131;-79
2022/08/08 08:34:01;;;;;;;;;;;;;;;25.59;57.09;101046.54;1730694;83;20223;-76
2022/08/08 08:36:28;;;;;;;;;;;;;;;25.57;56.87;101052.12;1759184;81;20139;-78
2022/08/08 08:38:54;;;;;;;;;;;;;;;25.59;57.05;101049.27;1760075;81;20391;-81
2022/08/08 08:41:22;;;;;;;;;;;;;;;25.69;57.31;101047.98;1759292;81;20143;-79
2022/08/08 08:43:50;;;;;;;;;;;;;;;25.81;56.93;101056.19;1759917;81;21085;-80
2022/08/08 08:46:16;;;;;;;;;;;;;;;25.92;56.80;101055.91;1760224;81;20146;-80
2022/08/08 08:48:43;;;;;;;;;;;;;;;25.94;56.52;101054.99;1760464;81;20476;-79
2022/08/08 08:51:11;;;;;;;;;;;;;;;26.01;56.39;101045.39;1736833;81;20135;-79
2022/08/08 08:53:47;;;;;;;;;;;;;;;26.04;56.13;101048.22;1760451;81;20147;-79
2022/08/08 08:56:15;;;;;;;;;;;;;;;26.06;55.90;101051.41;1757843;81;21147;-80
2022/08/08 08:58:46;;;;;;;;;;;;;;;26.03;55.93;101054.03;1761140;81;20150;-81
2022/08/08 09:01:18;;;;;;;;;;;;;;;26.02;56.05;101052.45;1760795;81;20441;-79
2022/08/08 09:03:47;;;;;;;;;;;;;;;26.09;56.10;101055.38;1760894;81;20445;-81
2022/08/08 09:06:20;;;;;;;;;;;;;;;26.15;56.15;101055.34;1760682;81;20178;-82
2022/08/08 09:09:06;;;;;;;;;;;;;;;26.23;55.81;101061.25;1760737;81;21219;-79
2022/08/08 09:11:40;;;;;;;;;;;;;;;26.31;55.17;101055.38;1760437;81;20126;-78
2022/08/08 09:14:07;;;;;;;;;;;;;;;26.32;54.75;101048.73;1760867;81;20146;-79
2022/08/08 09:16:34;;;;;;;;;;;;;;;26.29;55.02;101050.26;1760702;81;20444;-80
2022/08/08 09:19:02;;;;;;;;;;;;;;;26.32;54.78;101050.11;1758878;81;20146;-79
2022/08/08 09:21:30;;;;;;;;;;;;;;;26.33;54.86;101051.14;1757657;81;21722;-80
2022/08/08 09:23:57;;;;;;;;;;;;;;;26.39;54.71;101042.89;1760078;81;20204;-80
2022/08/08 09:26:44;;;;;;;;;;;;;;;26.55;54.71;101042.11;1758400;81;20227;-79
2022/08/08 09:29:17;;;;;;;;;;;;;;;26.82;54.50;101043.97;1759293;81;20209;-81
2022/08/08 09:31:59;;;;;;;;;;;;;;;27.24;53.62;101044.73;1759566;81;20169;-81
2022/08/08 09:34:31;;;;;;;;;;;;;;;27.41;52.52;101038.62;1755793;81;21141;-79
2022/08/08 09:37:09;;;;;;;;;;;;;;;27.34;51.94;101051.05;1760532;81;20139;-80
2022/08/08 09:40:04;;;;;;;;;;;;;;;27.16;51.58;101044.95;1760786;81;20442;-81
2022/08/08 09:42:34;;;;;;;;;;;;;;;26.93;51.91;101048.90;1758673;81;20383;-80
2022/08/08 09:45:06;;;;;;;;;;;;;;;26.81;52.88;101051.16;1760388;81;20150;-82
2022/08/08 09:47:36;;;;;;;;;;;;;;;26.80;52.87;101047.63;1760455;81;21178;-81
2022/08/08 09:50:11;;;;;;;;;;;;;;;26.91;53.26;101043.76;1760155;81;20221;-81
2022/08/08 09:52:50;;;;;;;;;;;;;;;27.16;53.02;101048.48;1760622;81;20167;-81
2022/08/08 09:55:18;;;;;;;;;;;;;;;27.33;52.50;101048.07;1760655;81;20561;-81
2022/08/08 09:57:45;;;;;;;;;;;;;;;27.36;52.45;101049.31;1760531;81;20501;-80
2022/08/08 10:00:13;;;;;;;;;;;;;;;27.33;52.13;101050.81;1737974;81;21929;-81
2022/08/08 10:02:46;;;;;;;;;;;;;;;27.29;52.18;101054.06;1756558;81;20164;-80
2022/08/08 10:05:24;;;;;;;;;;;;;;;27.23;51.69;101051.38;1727189;83;20129;-82
2022/08/08 10:07:54;;;;;;;;;;;;;;;27.22;52.20;101049.00;1756728;81;20139;-81
2022/08/08 10:10:32;;;;;;;;;;;;;;;27.32;51.63;101054.72;1749308;82;20147;-80
2022/08/08 10:12:59;;;;;;;;;;;;;;;27.38;52.13;101054.42;1749374;82;22042;-80
2022/08/08 10:15:28;;;;;;;;;;;;;;;27.47;51.70;101055.02;1749542;82;20429;-80
2022/08/08 10:17:56;;;;;;;;;;;;;;;27.51;51.37;101050.39;1727933;82;20517;-82
2022/08/08 10:20:22;;;;;;;;;;;;;;;27.51;51.34;101049.02;1749443;82;20447;-80
2022/08/08 10:22:55;;;;;;;;;;;;;;;27.47;51.11;101049.52;1728076;82;20159;-81
2022/08/08 10:25:22;;;;;;;;;;;;;;;27.43;51.15;101048.66;1749321;82;21088;-81
2022/08/08 10:27:50;;;;;;;;;;;;;;;27.53;51.17;101039.86;1708007;82;20200;-80
2022/08/08 10:30:17;;;;;;;;;;;;;;;27.62;50.94;101037.70;1771768;80;20128;-79
2022/08/08 10:32:49;;;;;;;;;;;;;;;27.61;51.03;101038.86;1759178;80;20802;-77
2022/08/08 10:35:16;;;;;;;;;;;;;;;27.64;51.31;101040.89;1750158;81;20142;-80
2022/08/08 10:37:55;;;;;;;;;;;;;;;27.72;50.92;101043.19;1758959;81;21070;-81
2022/08/08 10:41:02;;;;;;;;;;;;;;;27.72;51.23;101038.48;1736741;82;21225;-80
2022/08/08 10:43:38;;;;;;;;;;;;;;;27.77;50.80;101033.30;1764877;80;20166;-81
2022/08/08 10:46:24;;;;;;;;;;;;;;;27.73;50.78;101030.46;1758517;80;20201;-81
2022/08/08 10:48:35;;;;;;;;;;;;;;;27.72;50.88;101028.09;1705456;83;20210;-81
2022/08/08 10:51:12;;;;;;;;;;;;;;;27.77;50.25;101027.81;1756763;81;21145;-78
2022/08/08 10:53:39;;;;;;;;;;;;;;;27.75;50.24;101025.41;1760655;81;20461;-80
2022/08/08 10:56:06;;;;;;;;;;;;;;;27.82;50.11;101023.41;1758942;81;20657;-80
2022/08/08 10:58:33;;;;;;;;;;;;;;;27.90;49.87;101018.27;1758475;81;20456;-79
2022/08/08 11:01:01;;;;;;;;;;;;;;;28.05;49.38;101011.09;1757696;81;20158;-81
2022/08/08 11:03:27;;;;;;;;;;;;;;;28.15;49.64;101007.73;1733809;81;21976;-80
2022/08/08 11:05:54;;;;;;;;;;;;;;;28.12;49.42;101008.47;1758484;81;20297;-80
2022/08/08 11:08:22;;;;;;;;;;;;;;;27.90;49.25;101011.98;1758486;81;20271;-81
2022/08/08 11:10:48;;;;;;;;;;;;;;;27.59;49.93;101007.66;1759045;81;20527;-80
2022/08/08 11:13:19;;;;;;;;;;;;;;;27.58;50.55;101008.03;1757882;81;20174;-79
2022/08/08 11:15:45;;;;;;;;;;;;;;;27.72;50.75;101006.92;1755959;81;21235;-81
2022/08/08 11:18:11;;;;;;;;;;;;;;;27.88;50.01;101011.56;1733447;81;20162;-81
2022/08/08 11:20:38;;;;;;;;;;;;;;;27.89;49.78;101010.41;1758463;81;20142;-81
2022/08/08 11:23:04;;;;;;;;;;;;;;;27.94;49.84;101010.12;1755227;81;20197;-80
2022/08/08 11:25:31;;;;;;;;;;;;;;;28.01;49.99;101006.91;1758662;81;20232;-80
2022/08/08 11:27:59;;;;;;;;;;;;;;;28.05;49.69;101007.77;1755093;81;21857;-81
2022/08/08 11:30:28;;;;;;;;;;;;;;;28.18;50.54;101013.09;1758566;81;20174;-82
2022/08/08 11:32:57;;;;;;;;;;;;;;;28.32;49.68;101008.41;1758050;81;20173;-81
2022/08/08 11:35:24;;;;;;;;;;;;;;;28.37;50.12;101010.28;1760652;81;20167;-79
2022/08/08 11:37:50;;;;;;;;;;;;;;;28.34;50.68;101006.11;1760853;81;20153;-79
2022/08/08 11:40:16;;;;;;;;;;;;;;;28.36;50.93;101008.67;1760262;81;21074;-79
2022/08/08 11:42:43;;;;;;;;;;;;;;;28.43;50.66;101006.66;1759010;81;20717;-79
2022/08/08 11:45:10;;;;;;;;;;;;;;;28.41;50.58;101004.88;1759890;81;20433;-82
2022/08/08 11:47:38;;;;;;;;;;;;;;;28.27;50.38;101010.31;1761362;81;20138;-79
2022/08/08 11:50:14;;;;;;;;;;;;;;;28.18;50.59;101007.02;1759846;81;20177;-81
2022/08/08 11:52:40;;;;;;;;;;;;;;;28.11;50.79;101001.40;1758953;81;21250;-81
2022/08/08 11:55:25;;;;;;;;;;;;;;;28.15;51.34;101005.58;1758791;81;20126;-79
2022/08/08 11:58:04;;;;;;;;;;;;;;;28.22;51.06;100997.45;1758492;81;20173;-78
2022/08/08 12:00:32;;;;;;;;;;;;;;;28.27;51.00;101002.08;1758291;81;20167;-79
2022/08/08 12:02:59;;;;;;;;;;;;;;;28.24;51.05;101000.64;1758873;81;20190;-79
2022/08/08 12:05:35;;;;;;;;;;;;;;;28.18;51.06;100996.61;1758541;81;21120;-81
2022/08/08 12:08:02;;;;;;;;;;;;;;;28.18;50.93;101003.48;1758198;81;20191;-80
2022/08/08 12:10:29;;;;;;;;;;;;;;;28.17;50.79;101004.06;1755498;81;20193;-80
2022/08/08 12:13:04;;;;;;;;;;;;;;;28.18;50.97;100999.36;1758636;81;20225;-81
2022/08/08 12:15:34;;;;;;;;;;;;;;;28.15;50.48;100995.97;1758673;81;20135;-80
2022/08/08 12:18:12;;;;;;;;;;;;;;;28.10;50.90;100990.77;1760464;81;21233;-79
2022/08/08 12:20:38;;;;;;;;;;;;;;;28.16;50.79;100986.55;1759222;81;20123;-79
2022/08/08 12:23:04;;;;;;;;;;;;;;;28.27;50.40;100991.09;1758746;81;20162;-79
2022/08/08 12:25:32;;;;;;;;;;;;;;;28.34;50.13;100993.16;1758545;81;20154;-82
2022/08/08 12:28:13;;;;;;;;;;;;;;;28.30;49.60;100989.56;1759313;81;20146;-80
2022/08/08 12:30:40;;;;;;;;;;;;;;;28.27;49.80;100992.45;1759226;81;21137;-79
2022/08/08 12:33:24;;;;;;;;;;;;;;;28.22;49.70;100985.09;1758958;81;20183;-79
2022/08/08 12:35:52;;;;;;;;;;;;;;;28.19;50.01;100984.45;1758843;81;20146;-80
2022/08/08 12:38:18;;;;;;;;;;;;;;;28.19;50.39;100984.45;1734611;81;20812;-79
2022/08/08 12:40:48;;;;;;;;;;;;;;;28.23;49.98;100995.73;1755158;81;20179;-78
2022/08/08 12:43:14;;;;;;;;;;;;;;;28.26;50.04;100987.31;1758556;80;21759;-79
2022/08/08 12:45:42;;;;;;;;;;;;;;;28.23;50.34;100986.67;1758391;81;20218;-79
2022/08/08 12:48:20;;;;;;;;;;;;;;;28.25;50.15;100993.39;1761325;81;20206;-79
2022/08/08 12:50:48;;;;;;;;;;;;;;;28.26;49.90;100994.97;1761189;81;20130;-81
2022/08/08 12:53:24;;;;;;;;;;;;;;;28.23;49.79;100997.66;1760331;81;20206;-82
2022/08/08 12:55:52;;;;;;;;;;;;;;;28.18;49.81;100985.04;1756345;81;21150;-81
2022/08/08 12:58:19;;;;;;;;;;;;;;;28.14;49.90;100997.92;1761071;81;20417;-80
2022/08/08 13:00:47;;;;;;;;;;;;;;;28.23;50.01;100988.87;1760984;81;20142;-80
2022/08/08 13:03:26;;;;;;;;;;;;;;;28.39;49.92;100997.54;1778412;80;20219;-82
2022/08/08 13:06:11;;;;;;;;;;;;;;;28.51;49.59;100998.17;1759041;81;20159;-78
2022/08/08 13:08:45;;;;;;;;;;;;;;;28.59;49.47;100999.65;1758102;81;21969;-80
2022/08/08 13:11:34;;;;;;;;;;;;;;;28.59;49.09;100992.19;1758997;81;20503;-77
2022/08/08 13:14:11;;;;;;;;;;;;;;;28.57;49.26;100997.87;1758706;81;20185;-80
2022/08/08 13:16:38;;;;;;;;;;;;;;;28.55;48.76;101005.68;1758821;81;20143;-81
2022/08/08 13:19:08;;;;;;;;;;;;;;;28.51;48.75;101002.30;1755993;81;20162;-80